Annapolis, MD (21402)

1:24 PM EST on February 07, 2016 (GMT -0500)
NOS_NWLON | | Change Station
CLOSE
Current Station
Personal Weather Station
Location: Annapolis, MD
Elevation: 0 ft
Nearby Weather Stations

Elev 0 ft 38.98 °N, 76.48 °W | Updated 48 minutes ago

Clear
Clear
41 °F
Feels Like 41 °F
N
Wind Variable Wind from North
Gusts 0.0 mph

Today
High -- | Low -- °F
--% Chance of Precip.
Yesterday
High -- | Low -- °F
Precip. -- in
Pressure 30.10 in
Visibility 10.0 miles
Clouds Clear
Windchill 41 °F
Dew Point Not available.
Humidity Not available.
Rainfall in
Snow Depth Not available.
7:07 AM 5:33 PM
Waning Crescent, 1% visible
METAR KNAK 071754Z AUTO 01006KT 10SM CLR 05/M04 A3010 RMK AO2 SLP193 T00501044 10050 21017 58022
Pressure 30.10 in
Visibility 10.0 miles
Clouds Clear
Windchill 41 °F
Dew Point Not available.
Humidity Not available.
Rainfall in
Snow Depth Not available.
7:07 AM 5:33 PM
Waning Crescent, 1% visible
METAR KNAK 071754Z AUTO 01006KT 10SM CLR 05/M04 A3010 RMK AO2 SLP193 T00501044 10050 21017 58022

10-Day Weather Forecast

Almanac

Astronomy

Feb. 07, 2016 Rise Set
Actual Time
Civil Twilight
Nautical Twilight
Astronomical Twilight
Moon
Length of Visible Light
Length of Day
Tomorrow will be .
, % of the Moon is Illuminated

Today's Extremes

State Highs State Lows

Community

WunderPhotos

Upload Photos

1,891,276 photos uploaded!

WunderBlog® & News

Nearby

Air Quality

  Air Quality AQ Index Pollutant
Not available.

Snow Depth

Station Depth Elevation

Earthquake Activity

City Distance Mag. Time & Date
Minimum magnitude displayed is 2.5.

Coastal Water Temperatures

Place Temperature

Stations

Nearby Weather Stations

Station Location Temp. Windchill Dew Point Humidity Wind Precip. Elev Updated Type
                   

Watches & Warnings

There are currently no watches in effect.